Time;durP1;ratioP1;P1;durP2;ratioP2;P2;SDS_P1;SDS_P2;PMS_P1;PMS_P2;Temp;Humidity;BMP_temperature;BMP_pressure;BME280_temperature;BME280_humidity;BME280_pressure;Samples;Min_cycle;Max_cycle;Signal;HPM_P1;HPM_P2
2021/06/09 00:01:34;;;;;;;;;;;17.70;99.90;;;;;;5134688;27;19903;-76
2021/06/09 00:04:00;;;;;;;;;;;17.70;99.90;;;;;;5135799;27;19903;-76
2021/06/09 00:06:27;;;;;;;;;;;17.70;99.90;;;;;;5135881;27;19915;-76
2021/06/09 00:08:52;;;;;;;;;;;17.70;99.90;;;;;;5134363;27;20268;-76
2021/06/09 00:11:18;;;;;;;;;;;17.60;99.90;;;;;;5135153;27;19918;-76
2021/06/09 00:13:44;;;;;;;;;;;17.60;99.90;;;;;;5136716;27;19986;-75
2021/06/09 00:16:12;;;;;;;;;;;17.60;99.90;;;;;;5137481;27;19917;-75
2021/06/09 00:18:38;;;;;;;;;;;17.60;99.90;;;;;;5142954;27;19903;-75
2021/06/09 00:21:03;;;;;;;;;;;17.50;99.90;;;;;;5136699;27;19904;-74
2021/06/09 00:23:30;;;;;;;;;;;17.50;99.90;;;;;;5133887;27;19911;-76
2021/06/09 00:25:57;;;;;;;;;;;17.50;99.90;;;;;;5134962;27;20311;-76
2021/06/09 00:28:23;;;;;;;;;;;17.60;99.90;;;;;;5134852;27;19903;-74
2021/06/09 00:30:49;;;;;;;;;;;17.50;99.90;;;;;;5134060;27;19911;-75
2021/06/09 00:33:14;;;;;;;;;;;17.50;99.90;;;;;;5135753;27;19903;-75
2021/06/09 00:35:40;;;;;;;;;;;17.50;99.90;;;;;;5134746;27;19904;-75
2021/06/09 00:38:05;;;;;;;;;;;17.50;99.90;;;;;;5115379;27;20447;-74
2021/06/09 00:40:32;;;;;;;;;;;17.80;99.90;;;;;;5134465;27;19931;-76
2021/06/09 00:43:05;;;;;;;;;;;17.40;99.90;;;;;;5134618;27;19929;-75
2021/06/09 00:45:30;;;;;;;;;;;17.40;99.90;;;;;;5133543;27;20301;-75
2021/06/09 00:47:56;;;;;;;;;;;17.30;99.90;;;;;;5134379;27;19903;-75
2021/06/09 00:50:21;;;;;;;;;;;17.30;99.90;;;;;;5134103;27;20377;-73
2021/06/09 00:52:47;;;;;;;;;;;17.30;99.90;;;;;;5133402;27;19911;-75
2021/06/09 00:55:12;;;;;;;;;;;17.30;99.90;;;;;;5134406;27;19903;-75
2021/06/09 00:57:39;;;;;;;;;;;17.30;99.90;;;;;;5133682;27;20259;-75
2021/06/09 01:00:08;;;;;;;;;;;17.30;99.90;;;;;;5134353;27;19903;-75
2021/06/09 01:02:34;;;;;;;;;;;17.30;99.90;;;;;;5133731;27;19903;-75
2021/06/09 01:05:00;;;;;;;;;;;17.30;99.90;;;;;;5132815;27;20355;-75
2021/06/09 01:07:25;;;;;;;;;;;17.40;99.90;;;;;;5134119;27;19908;-76
2021/06/09 01:09:51;;;;;;;;;;;17.40;99.90;;;;;;5133979;28;19956;-75
2021/06/09 01:12:16;;;;;;;;;;;17.30;99.90;;;;;;5133359;28;19962;-75
2021/06/09 01:14:42;;;;;;;;;;;17.40;99.90;;;;;;5134146;28;19903;-75
2021/06/09 01:17:07;;;;;;;;;;;17.40;99.90;;;;;;5134148;28;19903;-75
2021/06/09 01:19:33;;;;;;;;;;;17.30;99.90;;;;;;5133815;28;19947;-75
2021/06/09 01:21:58;;;;;;;;;;;17.30;99.90;;;;;;5134331;28;19926;-74
2021/06/09 01:24:24;;;;;;;;;;;17.30;99.90;;;;;;5134070;28;19948;-75
2021/06/09 01:26:49;;;;;;;;;;;17.30;99.90;;;;;;5133272;28;19904;-75
2021/06/09 01:29:15;;;;;;;;;;;17.30;99.90;;;;;;5133814;28;20040;-74
2021/06/09 01:31:40;;;;;;;;;;;17.30;99.90;;;;;;5134034;28;19914;-74
2021/06/09 01:34:06;;;;;;;;;;;17.20;99.90;;;;;;5133019;28;19907;-75
2021/06/09 01:36:33;;;;;;;;;;;17.20;99.90;;;;;;5133654;28;19907;-75
2021/06/09 01:38:58;;;;;;;;;;;17.20;99.90;;;;;;5133689;28;19907;-75
2021/06/09 01:41:24;;;;;;;;;;;17.10;99.90;;;;;;5133053;28;19904;-75
2021/06/09 01:43:53;;;;;;;;;;;17.10;99.90;;;;;;5133860;28;20403;-76
2021/06/09 01:46:18;;;;;;;;;;;17.00;99.90;;;;;;5133680;28;19911;-75
2021/06/09 01:48:44;;;;;;;;;;;17.00;99.90;;;;;;5132664;28;19903;-74
2021/06/09 01:51:09;;;;;;;;;;;17.00;99.90;;;;;;5133656;28;19998;-75
2021/06/09 01:53:35;;;;;;;;;;;17.00;99.90;;;;;;5133769;28;19986;-75
2021/06/09 01:56:01;;;;;;;;;;;17.00;99.90;;;;;;5133205;28;20002;-75
2021/06/09 01:58:27;;;;;;;;;;;17.00;99.90;;;;;;5133866;28;19913;-75
2021/06/09 02:00:53;;;;;;;;;;;17.00;99.90;;;;;;5133659;28;19910;-75
2021/06/09 02:03:19;;;;;;;;;;;17.00;99.90;;;;;;5133773;28;19964;-75
2021/06/09 02:05:44;;;;;;;;;;;16.90;99.90;;;;;;5133664;28;20359;-75
2021/06/09 02:08:11;;;;;;;;;;;16.90;99.90;;;;;;5132918;28;19903;-75
2021/06/09 02:10:37;;;;;;;;;;;16.90;99.90;;;;;;5136531;28;19911;-76
2021/06/09 02:13:08;;;;;;;;;;;17.00;99.90;;;;;;5137596;28;20271;-75
2021/06/09 02:15:34;;;;;;;;;;;16.90;99.90;;;;;;5135247;27;19908;-75
2021/06/09 02:18:09;;;;;;;;;;;16.90;99.90;;;;;;5137162;27;19903;-75
2021/06/09 02:20:36;;;;;;;;;;;16.90;99.90;;;;;;5137892;27;19991;-74
2021/06/09 02:23:03;;;;;;;;;;;16.90;99.90;;;;;;5138730;27;19903;-76
2021/06/09 02:25:29;;;;;;;;;;;16.90;99.90;;;;;;5143288;27;19914;-75
2021/06/09 02:27:55;;;;;;;;;;;16.90;99.90;;;;;;5137736;27;19948;-76
2021/06/09 02:30:20;;;;;;;;;;;17.00;99.90;;;;;;5136286;27;19912;-75
2021/06/09 02:32:46;;;;;;;;;;;16.90;99.90;;;;;;5137067;27;20358;-75
2021/06/09 02:35:19;;;;;;;;;;;17.00;99.90;;;;;;5137102;27;19911;-75
2021/06/09 02:37:47;;;;;;;;;;;16.90;99.90;;;;;;5136269;27;19986;-75
2021/06/09 02:40:13;;;;;;;;;;;16.90;99.90;;;;;;5137079;27;20267;-75
2021/06/09 02:42:39;;;;;;;;;;;16.90;99.90;;;;;;5136821;27;19903;-75
2021/06/09 02:45:06;;;;;;;;;;;16.90;99.90;;;;;;5136025;27;19903;-75
2021/06/09 02:47:33;;;;;;;;;;;16.90;99.90;;;;;;5136992;27;19907;-75
2021/06/09 02:49:59;;;;;;;;;;;16.90;99.90;;;;;;5136403;27;20009;-75
2021/06/09 02:52:28;;;;;;;;;;;16.80;99.90;;;;;;5135714;27;19948;-75
2021/06/09 02:55:04;;;;;;;;;;;16.70;99.90;;;;;;5136670;27;19903;-74
2021/06/09 02:57:49;;;;;;;;;;;16.70;99.90;;;;;;5136136;27;20384;-75
2021/06/09 03:00:17;;;;;;;;;;;16.70;99.90;;;;;;5136278;27;20247;-74
2021/06/09 03:03:10;;;;;;;;;;;16.60;99.90;;;;;;5136346;27;20300;-76
2021/06/09 03:05:40;;;;;;;;;;;16.60;99.90;;;;;;5135668;27;19927;-76
2021/06/09 03:08:24;;;;;;;;;;;16.60;99.90;;;;;;5136171;27;20262;-74
2021/06/09 03:10:51;;;;;;;;;;;16.50;99.90;;;;;;5135915;27;19983;-75
2021/06/09 03:13:27;;;;;;;;;;;16.50;99.90;;;;;;5135513;27;19999;-76
2021/06/09 03:16:01;;;;;;;;;;;16.50;99.90;;;;;;5136266;27;19903;-75
2021/06/09 03:18:28;;;;;;;;;;;16.50;99.90;;;;;;5135393;27;19907;-74
2021/06/09 03:21:23;;;;;;;;;;;16.40;99.90;;;;;;5135895;27;19904;-74
2021/06/09 03:24:04;;;;;;;;;;;16.40;99.90;;;;;;5113608;27;20286;-75
2021/06/09 03:26:29;;;;;;;;;;;16.40;99.90;;;;;;5134252;27;20448;-75
2021/06/09 03:29:01;;;;;;;;;;;16.40;99.90;;;;;;5135808;27;19947;-75
2021/06/09 03:31:30;;;;;;;;;;;16.40;99.90;;;;;;5135911;27;19923;-75
2021/06/09 03:33:58;;;;;;;;;;;16.40;99.90;;;;;;5135192;27;19927;-76
2021/06/09 03:36:29;;;;;;;;;;;16.40;99.90;;;;;;5135735;27;20358;-75
2021/06/09 03:39:03;;;;;;;;;;;16.40;99.90;;;;;;5135823;27;19910;-76
2021/06/09 03:41:31;;;;;;;;;;;16.40;99.90;;;;;;5134829;27;19903;-75
2021/06/09 03:43:58;;;;;;;;;;;16.40;99.90;;;;;;5135608;27;20320;-76
2021/06/09 03:46:25;;;;;;;;;;;16.40;99.90;;;;;;5135717;27;20345;-75
2021/06/09 03:48:52;;;;;;;;;;;16.30;99.90;;;;;;5135232;27;19907;-75
2021/06/09 03:51:19;;;;;;;;;;;16.40;99.90;;;;;;5135370;27;19922;-75
2021/06/09 03:53:45;;;;;;;;;;;16.40;99.90;;;;;;5134774;27;19903;-76
2021/06/09 03:56:11;;;;;;;;;;;16.40;99.90;;;;;;5135275;27;19904;-75
2021/06/09 03:58:38;;;;;;;;;;;16.30;99.90;;;;;;5135439;27;19930;-75
2021/06/09 04:01:04;;;;;;;;;;;16.30;99.90;;;;;;5134629;27;19904;-76
2021/06/09 04:03:30;;;;;;;;;;;16.30;99.90;;;;;;5135185;27;19972;-75
2021/06/09 04:05:57;;;;;;;;;;;16.40;99.90;;;;;;5135028;27;20010;-75
2021/06/09 04:08:24;;;;;;;;;;;16.30;99.90;;;;;;5134319;27;20331;-75
2021/06/09 04:10:51;;;;;;;;;;;16.40;99.90;;;;;;5134939;27;20335;-75
2021/06/09 04:13:17;;;;;;;;;;;16.40;99.90;;;;;;5135172;27;19939;-75
2021/06/09 04:15:43;;;;;;;;;;;16.40;99.90;;;;;;5134410;27;20369;-75
2021/06/09 04:18:09;;;;;;;;;;;16.40;99.90;;;;;;5137254;27;19904;-76
2021/06/09 04:20:36;;;;;;;;;;;16.40;99.90;;;;;;5137645;27;19931;-76
2021/06/09 04:23:02;;;;;;;;;;;16.50;99.90;;;;;;5134044;27;19998;-76
2021/06/09 04:25:28;;;;;;;;;;;16.50;99.90;;;;;;5134973;27;19952;-76
2021/06/09 04:27:53;;;;;;;;;;;16.60;99.90;;;;;;5135789;27;20114;-76
2021/06/09 04:30:20;;;;;;;;;;;16.60;99.90;;;;;;5135728;27;19912;-77
2021/06/09 04:32:46;;;;;;;;;;;16.70;99.90;;;;;;5135204;27;19920;-76
2021/06/09 04:35:12;;;;;;;;;;;16.70;99.90;;;;;;5136296;27;19903;-76
2021/06/09 04:37:37;;;;;;;;;;;16.70;99.90;;;;;;5133770;27;19986;-76
2021/06/09 04:40:04;;;;;;;;;;;16.70;99.90;;;;;;5134868;27;19994;-75
2021/06/09 04:42:29;;;;;;;;;;;16.80;99.90;;;;;;5134525;27;19947;-75
2021/06/09 04:44:55;;;;;;;;;;;16.80;99.90;;;;;;5132921;27;19928;-76
2021/06/09 04:47:21;;;;;;;;;;;16.80;99.90;;;;;;5134379;27;20339;-75
2021/06/09 04:49:46;;;;;;;;;;;16.80;99.90;;;;;;5133282;27;19921;-76
2021/06/09 04:52:12;;;;;;;;;;;16.90;99.90;;;;;;5134010;27;19907;-75
2021/06/09 04:54:38;;;;;;;;;;;16.90;99.90;;;;;;5134646;27;19925;-74
2021/06/09 04:57:05;;;;;;;;;;;17.00;99.90;;;;;;5134076;27;20412;-76
2021/06/09 04:59:30;;;;;;;;;;;17.00;99.90;;;;;;5134369;27;19904;-76
2021/06/09 05:01:56;;;;;;;;;;;17.10;99.90;;;;;;5134276;27;20311;-77
2021/06/09 05:04:21;;;;;;;;;;;17.20;99.90;;;;;;5133339;27;19904;-76
2021/06/09 05:06:47;;;;;;;;;;;17.30;99.90;;;;;;5134246;27;19907;-75
2021/06/09 05:09:12;;;;;;;;;;;17.40;99.90;;;;;;5133930;27;19914;-75
2021/06/09 05:11:41;;;;;;;;;;;17.50;99.90;;;;;;5133688;27;19993;-76
2021/06/09 05:14:09;;;;;;;;;;;17.60;99.90;;;;;;5134004;28;19903;-74
2021/06/09 05:16:36;;;;;;;;;;;18.00;99.90;;;;;;5134208;28;19911;-75
2021/06/09 05:19:03;;;;;;;;;;;17.80;99.90;;;;;;5133465;28;19943;-75
2021/06/09 05:21:33;;;;;;;;;;;18.00;99.90;;;;;;5134141;28;19903;-75
2021/06/09 05:24:00;;;;;;;;;;;18.00;99.90;;;;;;5134604;28;19911;-76
2021/06/09 05:26:25;;;;;;;;;;;18.10;99.90;;;;;;5133456;28;19946;-76
2021/06/09 05:28:56;;;;;;;;;;;18.20;99.90;;;;;;5134281;28;19942;-75
2021/06/09 05:31:23;;;;;;;;;;;18.30;99.90;;;;;;5133836;28;19915;-75
2021/06/09 05:33:49;;;;;;;;;;;18.30;99.90;;;;;;5133146;28;19934;-76
2021/06/09 05:36:15;;;;;;;;;;;18.40;99.90;;;;;;5133654;28;19997;-75
2021/06/09 05:38:42;;;;;;;;;;;18.40;99.90;;;;;;5134118;28;20342;-75
2021/06/09 05:41:07;;;;;;;;;;;18.50;99.90;;;;;;5133721;28;20028;-76
2021/06/09 05:43:33;;;;;;;;;;;18.50;99.90;;;;;;5134015;28;19903;-75
2021/06/09 05:46:04;;;;;;;;;;;18.60;99.90;;;;;;5133953;28;19903;-76
2021/06/09 05:48:29;;;;;;;;;;;18.60;99.90;;;;;;5133901;28;19903;-76
2021/06/09 05:50:56;;;;;;;;;;;18.60;99.90;;;;;;5136612;27;19967;-76
2021/06/09 05:53:23;;;;;;;;;;;18.50;99.90;;;;;;5137594;27;19927;-76
2021/06/09 05:55:48;;;;;;;;;;;18.60;99.90;;;;;;5138062;27;19997;-76
2021/06/09 05:58:19;;;;;;;;;;;18.60;99.90;;;;;;5138059;27;19995;-76
2021/06/09 06:00:49;;;;;;;;;;;18.80;99.90;;;;;;5137049;27;19911;-78
2021/06/09 06:03:14;;;;;;;;;;;18.90;99.90;;;;;;5138297;27;19910;-75
2021/06/09 06:05:41;;;;;;;;;;;19.00;99.90;;;;;;5138670;27;19904;-76
2021/06/09 06:08:06;;;;;;;;;;;19.20;99.90;;;;;;5137365;27;20354;-75
2021/06/09 06:10:32;;;;;;;;;;;19.30;99.90;;;;;;5137784;27;19911;-76
2021/06/09 06:12:58;;;;;;;;;;;19.40;99.90;;;;;;5137614;27;19904;-75
2021/06/09 06:15:24;;;;;;;;;;;19.40;99.90;;;;;;5136373;27;19916;-75
2021/06/09 06:17:50;;;;;;;;;;;19.40;99.90;;;;;;5137589;27;19908;-75
2021/06/09 06:20:17;;;;;;;;;;;19.40;99.90;;;;;;5137433;27;19942;-76
2021/06/09 06:22:47;;;;;;;;;;;19.40;99.90;;;;;;5136270;27;19948;-76
2021/06/09 06:25:16;;;;;;;;;;;19.50;99.90;;;;;;5139712;27;19954;-74
2021/06/09 06:27:41;;;;;;;;;;;19.60;99.90;;;;;;5139938;27;19903;-75
2021/06/09 06:30:08;;;;;;;;;;;19.60;99.90;;;;;;5118056;27;19922;-78
2021/06/09 06:32:34;;;;;;;;;;;19.60;99.90;;;;;;5137211;27;19903;-75
2021/06/09 06:35:00;;;;;;;;;;;19.60;99.90;;;;;;5137882;27;19926;-75
2021/06/09 06:37:26;;;;;;;;;;;19.70;99.90;;;;;;5138785;27;19907;-76
2021/06/09 06:39:52;;;;;;;;;;;19.70;99.90;;;;;;5138108;27;19909;-75
2021/06/09 06:42:18;;;;;;;;;;;19.70;99.90;;;;;;5141012;27;19994;-75
2021/06/09 06:44:44;;;;;;;;;;;19.70;99.90;;;;;;5136773;27;19910;-75
2021/06/09 06:47:10;;;;;;;;;;;19.70;99.90;;;;;;5136907;27;19903;-74
2021/06/09 06:49:36;;;;;;;;;;;19.70;99.90;;;;;;5135727;27;20331;-76
2021/06/09 06:52:02;;;;;;;;;;;19.80;99.90;;;;;;5136654;27;19908;-76
2021/06/09 06:54:27;;;;;;;;;;;19.80;99.90;;;;;;5136774;27;19914;-75
2021/06/09 06:56:53;;;;;;;;;;;19.80;99.90;;;;;;5136256;27;19903;-76
2021/06/09 06:59:23;;;;;;;;;;;19.90;99.90;;;;;;5136675;27;19955;-76
2021/06/09 07:01:49;;;;;;;;;;;19.90;99.90;;;;;;5135181;27;19914;-76
2021/06/09 07:04:15;;;;;;;;;;;20.00;99.90;;;;;;5135897;27;20265;-76
2021/06/09 07:06:42;;;;;;;;;;;20.10;99.90;;;;;;5136373;27;19911;-76
2021/06/09 07:09:07;;;;;;;;;;;20.20;99.90;;;;;;5136406;27;19907;-75
2021/06/09 07:11:33;;;;;;;;;;;20.20;99.90;;;;;;5135484;27;19919;-75
2021/06/09 07:13:59;;;;;;;;;;;20.20;99.90;;;;;;5136333;27;19903;-75
2021/06/09 07:16:29;;;;;;;;;;;20.30;99.90;;;;;;5136717;27;19903;-74
2021/06/09 07:18:55;;;;;;;;;;;20.30;99.90;;;;;;5135652;27;19904;-75
2021/06/09 07:21:22;;;;;;;;;;;20.40;99.90;;;;;;5136311;27;19904;-75
2021/06/09 07:23:48;;;;;;;;;;;20.50;99.90;;;;;;5136599;27;19907;-75
2021/06/09 07:26:14;;;;;;;;;;;20.60;99.90;;;;;;5135452;27;20419;-75
2021/06/09 07:28:42;;;;;;;;;;;20.60;99.90;;;;;;5135868;27;20281;-74
2021/06/09 07:31:08;;;;;;;;;;;20.60;99.90;;;;;;5136183;27;19912;-75
2021/06/09 07:33:34;;;;;;;;;;;20.70;99.90;;;;;;5135485;27;19903;-74
2021/06/09 07:36:03;;;;;;;;;;;20.80;99.90;;;;;;5136393;27;19903;-76
2021/06/09 07:38:29;;;;;;;;;;;20.70;99.90;;;;;;5136314;27;19903;-74
2021/06/09 07:40:58;;;;;;;;;;;20.70;99.90;;;;;;5135376;27;19956;-77
2021/06/09 07:43:25;;;;;;;;;;;20.70;99.90;;;;;;5135620;27;19903;-78
2021/06/09 07:45:51;;;;;;;;;;;20.90;99.90;;;;;;5134911;27;19910;-76
2021/06/09 07:48:18;;;;;;;;;;;21.00;99.90;;;;;;5135570;27;20343;-74
2021/06/09 07:50:49;;;;;;;;;;;21.00;99.90;;;;;;5135614;27;19916;-75
2021/06/09 07:53:16;;;;;;;;;;;21.10;99.90;;;;;;5134734;27;20335;-74
2021/06/09 07:55:43;;;;;;;;;;;21.10;99.90;;;;;;5135663;27;19914;-75
2021/06/09 07:58:09;;;;;;;;;;;21.10;99.90;;;;;;5134986;27;19903;-76
2021/06/09 08:00:35;;;;;;;;;;;21.20;99.90;;;;;;5134655;27;20260;-75
2021/06/09 08:03:01;;;;;;;;;;;21.20;99.90;;;;;;5135529;27;19967;-75
2021/06/09 08:05:27;;;;;;;;;;;21.30;99.90;;;;;;5117201;27;20351;-76
2021/06/09 08:07:56;;;;;;;;;;;21.20;99.90;;;;;;5134936;27;19903;-76
2021/06/09 08:10:21;;;;;;;;;;;21.20;99.90;;;;;;5135681;27;19955;-75
2021/06/09 08:12:50;;;;;;;;;;;21.30;99.90;;;;;;5134762;27;19952;-75
2021/06/09 08:15:17;;;;;;;;;;;21.40;99.90;;;;;;5134746;27;19903;-75
2021/06/09 08:17:44;;;;;;;;;;;21.40;99.90;;;;;;5135140;27;19911;-76
2021/06/09 08:20:12;;;;;;;;;;;21.50;99.90;;;;;;5135099;27;19949;-74
2021/06/09 08:22:39;;;;;;;;;;;21.70;99.90;;;;;;5134242;27;19914;-76
2021/06/09 08:25:05;;;;;;;;;;;21.70;99.90;;;;;;5135370;27;19907;-76
2021/06/09 08:27:31;;;;;;;;;;;21.80;99.90;;;;;;5135442;27;19903;-76
2021/06/09 08:29:56;;;;;;;;;;;21.80;99.90;;;;;;5134699;27;19916;-74
2021/06/09 08:32:22;;;;;;;;;;;21.90;99.90;;;;;;5137674;27;19903;-76
2021/06/09 08:34:47;;;;;;;;;;;21.90;99.90;;;;;;5137504;27;20282;-75
2021/06/09 08:37:13;;;;;;;;;;;22.00;99.90;;;;;;5134372;27;20372;-75
2021/06/09 08:39:38;;;;;;;;;;;22.10;99.90;;;;;;5134924;27;19903;-75
2021/06/09 08:42:04;;;;;;;;;;;22.10;99.90;;;;;;5135048;27;19904;-75
2021/06/09 08:44:34;;;;;;;;;;;22.20;99.90;;;;;;5138940;27;19925;-77
2021/06/09 08:47:00;;;;;;;;;;;22.30;99.90;;;;;;5134807;27;20347;-75
2021/06/09 08:49:26;;;;;;;;;;;22.30;99.90;;;;;;5134183;27;19919;-75
2021/06/09 08:51:53;;;;;;;;;;;22.30;99.90;;;;;;5134323;27;19986;-75
2021/06/09 08:54:18;;;;;;;;;;;22.40;99.90;;;;;;5134725;27;19903;-74
2021/06/09 08:56:46;;;;;;;;;;;22.50;99.90;;;;;;5133632;27;20347;-74
2021/06/09 08:59:12;;;;;;;;;;;22.50;99.90;;;;;;5134676;27;19904;-75
2021/06/09 09:01:37;;;;;;;;;;;22.60;99.90;;;;;;5134449;27;19961;-75
2021/06/09 09:04:03;;;;;;;;;;;22.60;99.90;;;;;;5133633;27;20252;-74
2021/06/09 09:06:29;;;;;;;;;;;22.70;99.90;;;;;;5134422;27;19948;-75
2021/06/09 09:08:55;;;;;;;;;;;22.70;99.90;;;;;;5134596;27;19904;-75
2021/06/09 09:11:21;;;;;;;;;;;22.80;99.80;;;;;;5133409;27;19961;-75
2021/06/09 09:13:47;;;;;;;;;;;22.90;99.90;;;;;;5134251;28;19907;-75
2021/06/09 09:16:12;;;;;;;;;;;22.90;99.60;;;;;;5134535;28;19971;-75
2021/06/09 09:18:40;;;;;;;;;;;23.00;99.60;;;;;;5133485;28;20342;-75
2021/06/09 09:21:06;;;;;;;;;;;23.00;99.50;;;;;;5134382;28;19903;-76
2021/06/09 09:23:33;;;;;;;;;;;23.10;98.50;;;;;;5134573;27;19948;-76
2021/06/09 09:26:00;;;;;;;;;;;23.10;98.30;;;;;;5137138;27;19904;-76
2021/06/09 09:28:27;;;;;;;;;;;23.10;98.60;;;;;;5138943;27;19978;-76
2021/06/09 09:31:04;;;;;;;;;;;23.20;97.80;;;;;;5138500;27;19911;-75
2021/06/09 09:33:31;;;;;;;;;;;23.30;98.80;;;;;;5138170;27;19929;-75
2021/06/09 09:35:56;;;;;;;;;;;23.40;97.30;;;;;;5138816;27;19947;-75
2021/06/09 09:38:24;;;;;;;;;;;23.40;96.90;;;;;;5137658;27;19910;-75
2021/06/09 09:41:08;;;;;;;;;;;23.50;97.20;;;;;;5138164;27;20370;-73
2021/06/09 09:43:40;;;;;;;;;;;23.50;97.00;;;;;;5138363;27;19922;-76
2021/06/09 09:46:08;;;;;;;;;;;23.50;96.30;;;;;;5137353;27;19904;-74
2021/06/09 09:48:36;;;;;;;;;;;23.70;95.70;;;;;;5137795;27;19910;-75
2021/06/09 09:51:03;;;;;;;;;;;23.70;94.90;;;;;;5137821;27;19961;-76
2021/06/09 09:53:30;;;;;;;;;;;23.70;94.60;;;;;;5137251;27;20006;-76
2021/06/09 09:56:00;;;;;;;;;;;23.70;94.80;;;;;;5138028;27;19977;-76
2021/06/09 09:58:26;;;;;;;;;;;23.70;94.20;;;;;;5137600;27;19911;-76
2021/06/09 10:00:52;;;;;;;;;;;23.80;94.90;;;;;;5136172;27;20009;-76
2021/06/09 10:03:19;;;;;;;;;;;23.80;94.10;;;;;;5137479;27;19986;-76
2021/06/09 10:05:45;;;;;;;;;;;23.80;93.60;;;;;;5137536;27;19911;-76
2021/06/09 10:08:10;;;;;;;;;;;23.90;94.30;;;;;;5136616;27;20346;-76
2021/06/09 10:10:36;;;;;;;;;;;24.00;93.70;;;;;;5137491;27;19918;-76
2021/06/09 10:13:12;;;;;;;;;;;24.10;93.30;;;;;;5137430;27;20347;-76
2021/06/09 10:15:46;;;;;;;;;;;24.10;92.50;;;;;;5136635;27;20006;-75
2021/06/09 10:18:15;;;;;;;;;;;24.30;93.00;;;;;;5137369;27;19907;-76
2021/06/09 10:20:41;;;;;;;;;;;24.30;92.40;;;;;;5136640;27;19910;-75
2021/06/09 10:23:27;;;;;;;;;;;24.30;91.40;;;;;;5137509;27;20258;-74
2021/06/09 10:26:04;;;;;;;;;;;24.40;90.80;;;;;;5137134;27;19943;-75
2021/06/09 10:28:45;;;;;;;;;;;24.40;91.30;;;;;;5136412;27;19984;-76
2021/06/09 10:31:11;;;;;;;;;;;24.50;91.20;;;;;;5137237;27;20404;-75
2021/06/09 10:33:36;;;;;;;;;;;24.60;91.10;;;;;;5137387;27;19908;-74
2021/06/09 10:36:02;;;;;;;;;;;24.70;90.00;;;;;;5136146;27;19956;-75
2021/06/09 10:38:28;;;;;;;;;;;24.70;88.90;;;;;;5137422;27;19903;-76
2021/06/09 10:40:53;;;;;;;;;;;24.70;90.00;;;;;;5138263;27;19952;-76
2021/06/09 10:43:19;;;;;;;;;;;24.80;89.30;;;;;;5136819;27;20037;-76
2021/06/09 10:45:48;;;;;;;;;;;24.80;90.10;;;;;;5136929;27;20308;-76
2021/06/09 10:48:14;;;;;;;;;;;24.80;90.10;;;;;;5136835;27;19910;-76
2021/06/09 10:50:40;;;;;;;;;;;25.00;90.00;;;;;;5136298;27;19962;-76
2021/06/09 10:53:06;;;;;;;;;;;25.00;88.60;;;;;;5137795;27;19986;-76
2021/06/09 10:55:32;;;;;;;;;;;25.00;89.60;;;;;;5138650;27;19953;-76
2021/06/09 10:57:58;;;;;;;;;;;25.10;88.00;;;;;;5139261;27;19949;-77
2021/06/09 11:00:24;;;;;;;;;;;25.10;88.50;;;;;;5136941;27;20343;-75
2021/06/09 11:02:54;;;;;;;;;;;25.10;87.90;;;;;;5136000;27;20339;-76
2021/06/09 11:05:19;;;;;;;;;;;25.20;86.80;;;;;;5136751;27;19910;-74
2021/06/09 11:07:46;;;;;;;;;;;25.20;87.60;;;;;;5136688;27;19982;-75
2021/06/09 11:10:15;;;;;;;;;;;25.30;87.30;;;;;;5135761;27;19954;-75
2021/06/09 11:12:41;;;;;;;;;;;25.40;86.90;;;;;;5136524;27;19904;-76
2021/06/09 11:15:11;;;;;;;;;;;25.50;87.90;;;;;;5136772;27;19941;-74
2021/06/09 11:17:43;;;;;;;;;;;25.50;86.30;;;;;;5135551;27;20403;-75
2021/06/09 11:20:11;;;;;;;;;;;25.40;86.10;;;;;;5136492;27;19904;-74
2021/06/09 11:22:40;;;;;;;;;;;25.40;85.90;;;;;;5136243;27;19903;-75
2021/06/09 11:25:06;;;;;;;;;;;25.40;84.40;;;;;;5135459;27;20311;-76
2021/06/09 11:27:31;;;;;;;;;;;25.40;83.60;;;;;;5136351;27;19950;-75
2021/06/09 11:29:58;;;;;;;;;;;25.40;85.00;;;;;;5136088;27;20252;-76
2021/06/09 11:32:23;;;;;;;;;;;25.50;85.20;;;;;;5135305;27;19907;-76
2021/06/09 11:34:56;;;;;;;;;;;25.50;84.90;;;;;;5136210;27;19911;-75
2021/06/09 11:37:21;;;;;;;;;;;25.60;86.30;;;;;;5136155;27;19990;-75
2021/06/09 11:39:59;;;;;;;;;;;25.70;85.40;;;;;;5135481;27;19951;-76
2021/06/09 11:42:25;;;;;;;;;;;25.70;83.90;;;;;;5135993;27;19903;-77
2021/06/09 11:44:52;;;;;;;;;;;25.70;85.20;;;;;;5135013;27;19911;-76
2021/06/09 11:47:19;;;;;;;;;;;25.80;85.50;;;;;;5135174;27;20236;-76
2021/06/09 11:49:45;;;;;;;;;;;25.80;84.00;;;;;;5135415;27;19922;-76
2021/06/09 11:52:11;;;;;;;;;;;25.80;84.00;;;;;;5134916;27;19942;-76
2021/06/09 11:54:37;;;;;;;;;;;25.90;85.10;;;;;;5135643;27;19904;-76
2021/06/09 11:57:19;;;;;;;;;;;26.10;85.60;;;;;;5135798;27;19948;-76
2021/06/09 11:59:46;;;;;;;;;;;26.00;83.10;;;;;;5134838;27;19903;-76
2021/06/09 12:02:17;;;;;;;;;;;26.10;85.00;;;;;;5135594;27;19911;-76
2021/06/09 12:04:46;;;;;;;;;;;26.10;85.90;;;;;;5135416;27;20339;-77
2021/06/09 12:07:22;;;;;;;;;;;26.20;84.30;;;;;;5134370;27;19903;-76
2021/06/09 12:09:48;;;;;;;;;;;26.20;83.80;;;;;;5135247;27;19921;-76
2021/06/09 12:12:19;;;;;;;;;;;26.10;83.40;;;;;;5134967;27;19907;-75
2021/06/09 12:14:46;;;;;;;;;;;26.20;83.20;;;;;;5134512;27;19903;-76
2021/06/09 12:17:12;;;;;;;;;;;26.20;84.50;;;;;;5135260;27;19926;-76
2021/06/09 12:19:38;;;;;;;;;;;26.30;85.10;;;;;;5135116;27;20390;-76
2021/06/09 12:22:10;;;;;;;;;;;26.30;84.00;;;;;;5134538;27;19967;-76
2021/06/09 12:24:36;;;;;;;;;;;26.20;82.20;;;;;;5135429;27;19903;-77
2021/06/09 12:27:04;;;;;;;;;;;26.30;82.70;;;;;;5135054;27;19924;-76
2021/06/09 12:29:30;;;;;;;;;;;26.30;83.70;;;;;;5135631;27;20316;-76
2021/06/09 12:31:58;;;;;;;;;;;26.40;83.00;;;;;;5135475;27;19911;-76
2021/06/09 12:34:24;;;;;;;;;;;26.40;84.60;;;;;;5134132;27;19904;-76
2021/06/09 12:36:59;;;;;;;;;;;26.40;81.50;;;;;;5134450;27;20359;-76
2021/06/09 12:39:25;;;;;;;;;;;26.60;81.10;;;;;;5135083;27;19903;-76
2021/06/09 12:41:51;;;;;;;;;;;26.60;79.30;;;;;;5133960;27;19904;-76
2021/06/09 12:44:17;;;;;;;;;;;26.60;77.40;;;;;;5135171;27;19904;-75
2021/06/09 12:46:49;;;;;;;;;;;26.60;77.10;;;;;;5135343;27;19903;-76
2021/06/09 12:49:25;;;;;;;;;;;26.50;75.70;;;;;;5138627;27;19915;-75
2021/06/09 12:52:00;;;;;;;;;;;26.50;77.40;;;;;;5134463;27;19915;-74
2021/06/09 12:54:26;;;;;;;;;;;26.50;75.70;;;;;;5134562;27;19907;-74
2021/06/09 12:56:51;;;;;;;;;;;26.70;76.60;;;;;;5133853;27;19903;-76
2021/06/09 12:59:30;;;;;;;;;;;26.90;76.00;;;;;;5134799;27;20364;-77
2021/06/09 13:01:56;;;;;;;;;;;27.10;74.30;;;;;;5134677;27;19976;-76
2021/06/09 13:04:37;;;;;;;;;;;27.00;74.00;;;;;;5136091;27;19926;-75
2021/06/09 13:07:03;;;;;;;;;;;27.10;74.10;;;;;;5134416;27;19998;-76
2021/06/09 13:09:28;;;;;;;;;;;27.10;73.30;;;;;;5133471;27;20453;-76
2021/06/09 13:11:54;;;;;;;;;;;27.10;74.00;;;;;;5134394;27;20351;-76
2021/06/09 13:14:28;;;;;;;;;;;27.20;73.10;;;;;;5134494;28;19994;-75
2021/06/09 13:16:59;;;;;;;;;;;27.20;71.40;;;;;;5133889;28;19903;-75
2021/06/09 13:19:26;;;;;;;;;;;27.40;72.50;;;;;;5134355;28;20476;-76
2021/06/09 13:21:51;;;;;;;;;;;27.50;70.80;;;;;;5134302;28;20361;-74
2021/06/09 13:24:17;;;;;;;;;;;27.50;71.00;;;;;;5133347;28;19918;-75
2021/06/09 13:26:48;;;;;;;;;;;27.70;69.80;;;;;;5133988;28;20287;-75
2021/06/09 13:29:14;;;;;;;;;;;27.80;69.00;;;;;;5133993;28;20001;-77
2021/06/09 13:31:42;;;;;;;;;;;27.90;68.30;;;;;;5133192;28;20366;-75
2021/06/09 13:34:07;;;;;;;;;;;27.90;68.50;;;;;;5134054;28;19911;-75
2021/06/09 13:36:33;;;;;;;;;;;27.90;67.40;;;;;;5133890;28;20354;-75
2021/06/09 13:39:03;;;;;;;;;;;27.80;67.10;;;;;;5133217;28;19904;-75
2021/06/09 13:41:29;;;;;;;;;;;27.70;66.90;;;;;;5133765;28;19903;-75
2021/06/09 13:43:55;;;;;;;;;;;27.70;67.70;;;;;;5115466;28;19918;-75
2021/06/09 13:46:21;;;;;;;;;;;27.70;67.90;;;;;;5133265;28;19986;-76
2021/06/09 13:48:47;;;;;;;;;;;27.70;66.00;;;;;;5133703;28;19945;-75
2021/06/09 13:51:15;;;;;;;;;;;27.70;67.70;;;;;;5133792;28;20012;-76
2021/06/09 13:54:02;;;;;;;;;;;27.70;65.10;;;;;;5133167;28;20362;-76
2021/06/09 13:56:34;;;;;;;;;;;27.70;64.40;;;;;;5133998;28;20374;-77
2021/06/09 13:59:17;;;;;;;;;;;27.60;63.90;;;;;;5132983;28;19949;-76
2021/06/09 14:01:45;;;;;;;;;;;27.70;63.70;;;;;;5134048;28;19910;-76
2021/06/09 14:04:11;;;;;;;;;;;27.90;61.40;;;;;;5133920;28;20365;-76
2021/06/09 14:06:37;;;;;;;;;;;28.00;59.30;;;;;;5133267;28;19963;-77
2021/06/09 14:09:07;;;;;;;;;;;28.20;58.80;;;;;;5134279;28;20355;-76
2021/06/09 14:11:33;;;;;;;;;;;28.30;56.60;;;;;;5136234;27;19912;-77
2021/06/09 14:13:59;;;;;;;;;;;28.30;56.40;;;;;;5136817;27;19903;-76
2021/06/09 14:16:25;;;;;;;;;;;28.50;54.40;;;;;;5137632;27;19914;-75
2021/06/09 14:18:50;;;;;;;;;;;28.80;53.30;;;;;;5137428;27;19911;-75